Aviation Digital Data Service (ADDS)

Output produced by METARs form (0111 UTC 25 March 2019)
found at http://www.aviationweather.gov/metar/data/
 
LFML 250100Z AUTO 14006KT CAVOK 08/03 Q1019 BECMG 34015KT
TAF LFML 242000Z 2421/2603 VRB05KT CAVOK TX19/2513Z TN07/2505Z 
     BECMG 2501/2503 34015KT 
     BECMG 2505/2507 34020G30KT 
     TEMPO 2510/2524 34030G45KT